createdAt,value
2023-03-29T00:01:35.115Z,102370.88
2023-03-29T00:04:04.547Z,102372.81
2023-03-29T00:06:33.188Z,102370.41
2023-03-29T00:09:01.699Z,102369.44
2023-03-29T00:11:28.358Z,102364.06
2023-03-29T00:13:54.985Z,102363.19
2023-03-29T00:16:21.830Z,102370.19
2023-03-29T00:18:48.651Z,102366.59
2023-03-29T00:21:15.351Z,102366.59
2023-03-29T00:23:41.849Z,102357.78
2023-03-29T00:26:08.595Z,102350.75
2023-03-29T00:28:35.613Z,102344.72
2023-03-29T00:31:11.250Z,102354.59
2023-03-29T00:33:38.064Z,102346.63
2023-03-29T00:36:05.263Z,102352.03
2023-03-29T00:38:32.089Z,102350.44
2023-03-29T00:40:59.104Z,102348.84
2023-03-29T00:43:25.901Z,102342.84
2023-03-29T00:45:52.703Z,102346.53
2023-03-29T00:48:27.976Z,102347.81
2023-03-29T00:50:58.081Z,102346.19
2023-03-29T00:53:35.993Z,102345.19
2023-03-29T00:56:24.806Z,102348.72
2023-03-29T00:58:59.223Z,102342.59
2023-03-29T01:01:34.100Z,102330.19
2023-03-29T01:04:08.610Z,102331.09
2023-03-29T01:06:39.230Z,102332.06
2023-03-29T01:09:09.328Z,102337.38
2023-03-29T01:11:39.942Z,102331.31
2023-03-29T01:14:19.162Z,102333.19
2023-03-29T01:16:46.124Z,102336.69
2023-03-29T01:19:16.277Z,102339.44
2023-03-29T01:21:47.901Z,102331.50
2023-03-29T01:24:44.477Z,102327.25
2023-03-29T01:27:22.904Z,102334.56
2023-03-29T01:30:00.299Z,102332.03
2023-03-29T01:32:44.725Z,102337.38
2023-03-29T01:35:16.400Z,102332.16
2023-03-29T01:37:48.208Z,102325.94
2023-03-29T01:40:14.825Z,102324.16
2023-03-29T01:43:02.875Z,102314.53
2023-03-29T01:45:35.744Z,102310.00
2023-03-29T01:48:06.513Z,102305.47
2023-03-29T01:51:08.516Z,102290.25
2023-03-29T01:53:55.172Z,102284.81
2023-03-29T01:56:24.866Z,102290.00
2023-03-29T01:59:13.171Z,102284.59
2023-03-29T02:01:43.726Z,102269.44
2023-03-29T02:04:13.146Z,102260.63
2023-03-29T02:06:40.948Z,102252.78
2023-03-29T02:09:07.730Z,102262.72
2023-03-29T02:11:36.067Z,102255.72
2023-03-29T02:14:02.590Z,102261.97
2023-03-29T02:16:29.120Z,102255.72
2023-03-29T02:18:59.012Z,102256.63
2023-03-29T02:21:37.170Z,102263.03
2023-03-29T02:24:08.816Z,102262.97
2023-03-29T02:26:36.164Z,102262.28
2023-03-29T02:29:02.882Z,102249.09
2023-03-29T02:31:35.823Z,102253.56
2023-03-29T02:34:05.370Z,102256.31
2023-03-29T02:36:41.528Z,102245.72
2023-03-29T02:39:10.156Z,102249.25
2023-03-29T02:41:38.099Z,102236.72
2023-03-29T02:44:07.605Z,102234.78
2023-03-29T02:46:34.716Z,102231.13
2023-03-29T02:49:01.326Z,102242.44
2023-03-29T02:51:33.242Z,102245.91
2023-03-29T02:54:26.424Z,102244.03
2023-03-29T02:57:00.356Z,102234.31
2023-03-29T02:59:27.370Z,102230.69
2023-03-29T03:01:53.973Z,102221.78
2023-03-29T03:04:23.731Z,102204.88
2023-03-29T03:06:50.462Z,102215.53
2023-03-29T03:09:17.280Z,102218.16
2023-03-29T03:11:43.821Z,102223.50
2023-03-29T03:14:10.911Z,102224.34
2023-03-29T03:16:37.516Z,102222.47
2023-03-29T03:19:04.272Z,102227.81
2023-03-29T03:21:30.967Z,102219.91
2023-03-29T03:23:57.516Z,102214.63
2023-03-29T03:26:24.989Z,102215.47
2023-03-29T03:28:51.712Z,102210.09
2023-03-29T03:31:19.598Z,102215.41
2023-03-29T03:33:46.189Z,102211.97
2023-03-29T03:36:12.845Z,102214.56
2023-03-29T03:38:39.631Z,102210.09
2023-03-29T03:41:09.489Z,102218.03
2023-03-29T03:43:36.324Z,102224.22
2023-03-29T03:46:03.033Z,102217.13
2023-03-29T03:48:29.658Z,102211.81
2023-03-29T03:50:58.395Z,102218.94
2023-03-29T03:53:26.312Z,102217.09
2023-03-29T03:55:55.919Z,102220.59
2023-03-29T03:58:22.962Z,102208.22
2023-03-29T04:00:50.445Z,102215.28
2023-03-29T04:03:17.824Z,102217.03
2023-03-29T04:05:45.804Z,102215.16
2023-03-29T04:08:13.180Z,102212.59
2023-03-29T04:10:42.870Z,102221.56
2023-03-29T04:13:09.680Z,102225.16
2023-03-29T04:15:39.262Z,102222.63
2023-03-29T04:18:07.519Z,102217.41
2023-03-29T04:20:34.551Z,102211.28
2023-03-29T04:23:01.779Z,102216.75
2023-03-29T04:25:28.473Z,102218.63
2023-03-29T04:27:56.616Z,102223.16
2023-03-29T04:30:23.333Z,102219.69
2023-03-29T04:32:49.987Z,102219.84
2023-03-29T04:35:16.616Z,102219.03
2023-03-29T04:37:43.198Z,102217.34
2023-03-29T04:40:14.373Z,102222.78
2023-03-29T04:42:45.972Z,102231.75
2023-03-29T04:45:19.332Z,102227.44
2023-03-29T04:47:46.416Z,102222.25
2023-03-29T04:50:21.364Z,102230.31
2023-03-29T04:52:48.108Z,102233.03
2023-03-29T04:55:14.618Z,102217.97
2023-03-29T04:57:41.334Z,102221.38
2023-03-29T05:00:15.136Z,102222.09
2023-03-29T05:02:45.606Z,102226.41
2023-03-29T05:05:13.248Z,102224.50
2023-03-29T05:07:40.304Z,102226.09
2023-03-29T05:10:07.477Z,102213.56
2023-03-29T05:12:34.479Z,102215.38
2023-03-29T05:15:01.258Z,102211.75
2023-03-29T05:17:27.987Z,102206.41
2023-03-29T05:19:55.134Z,102209.81
2023-03-29T05:22:21.988Z,102212.22
2023-03-29T05:24:48.650Z,102215.63
2023-03-29T05:27:15.261Z,102210.16
2023-03-29T05:29:41.872Z,102218.94
2023-03-29T05:32:08.473Z,102208.22
2023-03-29T05:34:35.551Z,102200.06
2023-03-29T05:37:02.307Z,102192.06
2023-03-29T05:39:29.042Z,102199.13
2023-03-29T05:41:55.876Z,102210.56
2023-03-29T05:44:22.400Z,102213.00
2023-03-29T05:46:48.884Z,102213.59
2023-03-29T05:49:15.403Z,102212.56
2023-03-29T05:51:42.792Z,102223.19
2023-03-29T05:54:09.320Z,102225.72
2023-03-29T05:56:35.917Z,102229.19
2023-03-29T05:59:02.562Z,102237.28
2023-03-29T06:01:29.622Z,102226.50
2023-03-29T06:03:57.440Z,102226.38
2023-03-29T06:06:24.052Z,102220.94
2023-03-29T06:08:50.684Z,102232.53
2023-03-29T06:11:17.684Z,102238.72
2023-03-29T06:13:44.286Z,102238.56
2023-03-29T06:16:11.243Z,102230.50
2023-03-29T06:18:41.230Z,102238.44
2023-03-29T06:21:09.413Z,102240.03
2023-03-29T06:23:38.139Z,102244.28
2023-03-29T06:26:05.851Z,102251.06
2023-03-29T06:28:33.011Z,102238.56
2023-03-29T06:31:02.734Z,102240.03
2023-03-29T06:33:30.919Z,102252.88
2023-03-29T06:35:57.721Z,102256.00
2023-03-29T06:38:26.751Z,102266.31
2023-03-29T06:41:00.691Z,102260.66
2023-03-29T06:43:27.320Z,102259.34
2023-03-29T06:45:54.297Z,102264.28
2023-03-29T06:48:21.330Z,102271.03
2023-03-29T06:50:48.482Z,102270.81
2023-03-29T06:53:18.461Z,102271.59
2023-03-29T06:55:45.723Z,102270.50
2023-03-29T06:58:12.404Z,102281.06
2023-03-29T07:00:39.389Z,102287.22
2023-03-29T07:03:08.146Z,102290.47
2023-03-29T07:05:36.524Z,102278.44
2023-03-29T07:08:05.875Z,102275.28
2023-03-29T07:10:38.268Z,102276.56
2023-03-29T07:13:09.031Z,102274.22
2023-03-29T07:15:36.096Z,102280.03
2023-03-29T07:18:04.827Z,102282.22
2023-03-29T07:20:33.718Z,102283.50
2023-03-29T07:23:00.308Z,102291.91
2023-03-29T07:25:27.732Z,102297.56
2023-03-29T07:27:54.300Z,102304.69
2023-03-29T07:30:24.036Z,102310.25
2023-03-29T07:32:51.307Z,102303.25
2023-03-29T07:35:18.113Z,102294.66
2023-03-29T07:37:45.433Z,102288.69
2023-03-29T07:40:23.918Z,102294.06
2023-03-29T07:42:55.207Z,102307.56
2023-03-29T07:45:26.452Z,102299.94
2023-03-29T07:47:59.516Z,102316.47
2023-03-29T07:50:32.463Z,102320.69
2023-03-29T07:53:00.875Z,102316.25
2023-03-29T07:55:27.704Z,102320.00
2023-03-29T07:57:54.462Z,102319.50
2023-03-29T08:00:22.311Z,102319.06
2023-03-29T08:02:50.861Z,102305.84
2023-03-29T08:05:23.430Z,102305.84
2023-03-29T08:07:56.148Z,102320.19
2023-03-29T08:10:22.848Z,102317.69
2023-03-29T08:12:50.301Z,102313.34
2023-03-29T08:15:19.095Z,102304.63
2023-03-29T08:17:45.842Z,102302.53
2023-03-29T08:20:15.093Z,102317.41
2023-03-29T08:22:42.242Z,102316.22
2023-03-29T08:25:09.640Z,102308.84
2023-03-29T08:27:37.501Z,102318.38
2023-03-29T08:30:06.775Z,102321.03
2023-03-29T08:32:33.404Z,102312.13
2023-03-29T08:35:03.804Z,102310.13
2023-03-29T08:37:31.782Z,102317.94
2023-03-29T08:39:58.707Z,102322.06
2023-03-29T08:42:52.881Z,102325.34
2023-03-29T08:45:56.799Z,102320.28
2023-03-29T08:48:29.937Z,102317.75
2023-03-29T08:51:03.997Z,102313.75
2023-03-29T08:53:44.212Z,102318.84
2023-03-29T08:56:18.586Z,102321.53
2023-03-29T08:58:46.612Z,102327.00
2023-03-29T09:01:13.316Z,102319.69
2023-03-29T09:04:09.849Z,102319.16
2023-03-29T09:06:39.237Z,102324.75
2023-03-29T09:09:06.584Z,102329.75
2023-03-29T09:12:04.246Z,102329.75
2023-03-29T09:14:56.131Z,102317.38
2023-03-29T09:17:26.414Z,102322.75
2023-03-29T09:20:26.205Z,102325.53
2023-03-29T09:23:18.311Z,102326.38
2023-03-29T09:26:08.315Z,102327.25
2023-03-29T09:28:38.358Z,102326.13
2023-03-29T09:31:16.778Z,102322.19
2023-03-29T09:33:52.205Z,102328.03
2023-03-29T09:36:37.563Z,102329.53
2023-03-29T09:39:05.235Z,102329.22
2023-03-29T09:41:38.259Z,102319.25
2023-03-29T09:44:28.224Z,102322.63
2023-03-29T09:47:24.981Z,102328.09
2023-03-29T09:49:57.198Z,102323.47
2023-03-29T09:52:23.861Z,102316.19
2023-03-29T09:54:50.736Z,102314.81
2023-03-29T09:57:18.297Z,102317.81
2023-03-29T09:59:46.306Z,102324.78
2023-03-29T10:02:14.117Z,102319.34
2023-03-29T10:04:45.721Z,102318.78
2023-03-29T10:07:20.623Z,102319.88
2023-03-29T10:09:50.582Z,102306.25
2023-03-29T10:12:17.551Z,102304.13
2023-03-29T10:14:53.949Z,102304.22
2023-03-29T10:17:25.802Z,102304.41
2023-03-29T10:19:53.435Z,102313.16
2023-03-29T10:22:23.711Z,102294.31
2023-03-29T10:24:52.651Z,102302.81
2023-03-29T10:27:24.545Z,102302.91
2023-03-29T10:29:55.763Z,102290.00
2023-03-29T10:32:28.759Z,102307.88
2023-03-29T10:34:55.601Z,102299.91
2023-03-29T10:37:23.570Z,102299.47
2023-03-29T10:39:50.589Z,102303.75
2023-03-29T10:42:18.686Z,102295.31
2023-03-29T10:44:57.304Z,102299.59
2023-03-29T10:47:24.652Z,102306.66
2023-03-29T10:49:59.625Z,102307.06
2023-03-29T10:52:26.633Z,102306.00
2023-03-29T10:54:55.069Z,102296.94
2023-03-29T10:57:45.306Z,102288.75
2023-03-29T11:00:18.112Z,102292.88
2023-03-29T11:03:17.058Z,102297.22
2023-03-29T11:06:23.682Z,102293.16
2023-03-29T11:08:57.812Z,102289.94
2023-03-29T11:11:30.102Z,102296.19
2023-03-29T11:14:02.648Z,102291.69
2023-03-29T11:16:56.852Z,102294.91
2023-03-29T11:19:43.369Z,102289.09
2023-03-29T11:22:49.623Z,102295.25
2023-03-29T11:25:38.501Z,102302.91
2023-03-29T11:28:18.296Z,102292.13
2023-03-29T11:31:10.269Z,102282.25
2023-03-29T11:33:55.687Z,102292.34
2023-03-29T11:37:12.404Z,102293.00
2023-03-29T11:39:54.896Z,102290.19
2023-03-29T11:42:25.322Z,102284.16
2023-03-29T11:44:57.590Z,102273.78
2023-03-29T11:47:37.355Z,102276.56
2023-03-29T11:50:23.949Z,102279.56
2023-03-29T11:53:16.127Z,102286.31
2023-03-29T11:55:42.571Z,102282.63
2023-03-29T11:58:27.019Z,102275.69
2023-03-29T12:01:17.132Z,102280.41
2023-03-29T12:03:57.080Z,102280.59
2023-03-29T12:06:39.288Z,102273.88
2023-03-29T12:09:16.242Z,102278.22
2023-03-29T12:11:50.360Z,102269.06
2023-03-29T12:14:24.454Z,102265.81
2023-03-29T12:17:04.668Z,102266.34
2023-03-29T12:19:41.783Z,102265.75
2023-03-29T12:22:10.074Z,102255.13
2023-03-29T12:24:40.428Z,102258.00
2023-03-29T12:27:19.860Z,102258.28
2023-03-29T12:30:14.637Z,102258.53
2023-03-29T12:32:59.528Z,102249.19
2023-03-29T12:35:29.171Z,102247.78
2023-03-29T12:38:17.095Z,102243.97
2023-03-29T12:40:48.770Z,102239.69
2023-03-29T12:43:24.449Z,102236.22
2023-03-29T12:45:57.085Z,102239.38
2023-03-29T12:48:27.685Z,102235.03
2023-03-29T12:51:07.698Z,102244.72
2023-03-29T12:53:36.500Z,102241.53
2023-03-29T12:56:03.720Z,102236.41
2023-03-29T12:58:30.682Z,102230.63
2023-03-29T13:01:07.318Z,102238.38
2023-03-29T13:03:40.126Z,102243.88
2023-03-29T13:06:10.487Z,102237.78
2023-03-29T13:08:46.050Z,102233.06
2023-03-29T13:11:26.086Z,102227.31
2023-03-29T13:13:53.326Z,102225.22
2023-03-29T13:16:28.673Z,102221.78
2023-03-29T13:19:36.750Z,102235.78
2023-03-29T13:22:12.407Z,102222.78
2023-03-29T13:25:06.061Z,102225.59
2023-03-29T13:27:45.419Z,102222.50
2023-03-29T13:30:26.109Z,102223.16
2023-03-29T13:33:07.501Z,102215.41
2023-03-29T13:35:51.224Z,102225.94
2023-03-29T13:38:31.819Z,102216.75
2023-03-29T13:41:07.253Z,102225.34
2023-03-29T13:43:37.644Z,102222.53
2023-03-29T13:46:06.861Z,102224.50
2023-03-29T13:48:36.600Z,102216.38
2023-03-29T13:51:18.529Z,102219.31
2023-03-29T13:53:49.874Z,102223.41
2023-03-29T13:56:20.219Z,102227.91
2023-03-29T13:59:03.938Z,102220.06
2023-03-29T14:01:53.717Z,102224.72
2023-03-29T14:04:26.756Z,102228.91
2023-03-29T14:06:56.164Z,102230.88
2023-03-29T14:09:28.740Z,102225.81
2023-03-29T14:11:55.837Z,102226.19
2023-03-29T14:14:26.872Z,102229.75
2023-03-29T14:16:55.878Z,102226.94
2023-03-29T14:19:34.588Z,102228.88
2023-03-29T14:22:02.600Z,102228.81
2023-03-29T14:24:48.045Z,102225.97
2023-03-29T14:27:16.568Z,102232.81
2023-03-29T14:29:47.533Z,102230.34
2023-03-29T14:32:18.774Z,102231.31
2023-03-29T14:34:49.822Z,102224.31
2023-03-29T14:37:21.929Z,102218.69
2023-03-29T14:39:50.591Z,102219.44
2023-03-29T14:42:25.295Z,102217.34
2023-03-29T14:44:58.020Z,102217.50
2023-03-29T14:47:28.516Z,102218.34
2023-03-29T14:49:58.859Z,102214.66
2023-03-29T14:52:26.037Z,102218.34
2023-03-29T14:54:56.582Z,102219.56
2023-03-29T14:57:26.411Z,102216.47
2023-03-29T15:00:09.296Z,102207.84
2023-03-29T15:02:35.861Z,102211.53
2023-03-29T15:05:05.513Z,102207.84
2023-03-29T15:07:34.915Z,102199.25
2023-03-29T15:10:03.092Z,102203.53
2023-03-29T15:12:30.768Z,102194.41
2023-03-29T15:14:58.136Z,102195.50
2023-03-29T15:17:49.588Z,102199.06
2023-03-29T15:20:26.418Z,102196.47
2023-03-29T15:22:59.359Z,102186.66
2023-03-29T15:25:34.539Z,102201.13
2023-03-29T15:28:01.858Z,102206.91
2023-03-29T15:30:34.504Z,102199.75
2023-03-29T15:33:15.619Z,102199.44
2023-03-29T15:35:43.121Z,102203.16
2023-03-29T15:38:12.491Z,102192.25
2023-03-29T15:40:39.159Z,102201.00
2023-03-29T15:43:05.989Z,102198.06
2023-03-29T15:45:33.073Z,102204.19
2023-03-29T15:48:04.798Z,102205.19
2023-03-29T15:50:31.857Z,102208.97
2023-03-29T15:53:08.598Z,102191.72
2023-03-29T15:55:44.661Z,102201.50
2023-03-29T15:58:20.577Z,102198.94
2023-03-29T16:00:54.023Z,102197.66
2023-03-29T16:03:22.412Z,102191.78
2023-03-29T16:05:49.141Z,102196.31
2023-03-29T16:08:15.733Z,102201.28
2023-03-29T16:10:44.002Z,102199.34
2023-03-29T16:13:13.409Z,102191.91
2023-03-29T16:15:40.980Z,102190.81
2023-03-29T16:18:07.549Z,102197.72
2023-03-29T16:20:34.150Z,102196.19
2023-03-29T16:23:01.039Z,102199.56
2023-03-29T16:25:27.880Z,102192.53
2023-03-29T16:27:54.467Z,102196.66
2023-03-29T16:30:21.037Z,102193.63
2023-03-29T16:32:47.634Z,102201.38
2023-03-29T16:35:37.004Z,102201.72
2023-03-29T16:38:04.376Z,102210.28
2023-03-29T16:40:30.945Z,102209.06
2023-03-29T16:42:57.513Z,102211.78
2023-03-29T16:45:24.050Z,102204.13
2023-03-29T16:47:51.167Z,102198.47
2023-03-29T16:50:19.749Z,102196.97
2023-03-29T16:52:48.529Z,102186.50
2023-03-29T16:55:18.939Z,102187.25
2023-03-29T16:57:47.372Z,102190.25
2023-03-29T17:00:18.669Z,102190.69
2023-03-29T17:02:45.949Z,102185.00
2023-03-29T17:05:12.777Z,102191.91
2023-03-29T17:07:39.902Z,102187.94
2023-03-29T17:10:08.266Z,102184.41
2023-03-29T17:12:35.114Z,102186.75
2023-03-29T17:15:01.659Z,102179.53
2023-03-29T17:17:28.380Z,102189.00
2023-03-29T17:19:56.693Z,102183.22
2023-03-29T17:22:24.768Z,102191.81
2023-03-29T17:24:51.622Z,102189.69
2023-03-29T17:27:18.543Z,102193.16
2023-03-29T17:29:45.245Z,102192.16
2023-03-29T17:32:11.783Z,102200.56
2023-03-29T17:34:38.713Z,102200.31
2023-03-29T17:37:05.334Z,102201.41
2023-03-29T17:39:32.131Z,102204.09
2023-03-29T17:41:58.661Z,102198.25
2023-03-29T17:44:25.664Z,102210.19
2023-03-29T17:46:52.230Z,102218.47
2023-03-29T17:49:18.909Z,102218.59
2023-03-29T17:51:46.301Z,102213.06
2023-03-29T17:54:12.863Z,102218.28
2023-03-29T17:56:39.453Z,102226.25
2023-03-29T17:59:05.976Z,102230.34
2023-03-29T18:01:32.809Z,102229.25
2023-03-29T18:03:59.485Z,102224.53
2023-03-29T18:06:26.045Z,102227.91
2023-03-29T18:08:54.313Z,102229.59
2023-03-29T18:11:22.902Z,102234.03
2023-03-29T18:13:50.863Z,102236.72
2023-03-29T18:16:18.342Z,102237.50
2023-03-29T18:18:46.334Z,102238.34
2023-03-29T18:21:14.608Z,102249.34
2023-03-29T18:23:44.944Z,102240.59
2023-03-29T18:26:12.397Z,102249.75
2023-03-29T18:28:40.562Z,102246.06
2023-03-29T18:31:07.897Z,102252.13
2023-03-29T18:33:37.224Z,102254.72
2023-03-29T18:36:08.440Z,102257.28
2023-03-29T18:38:40.411Z,102260.75
2023-03-29T18:41:08.617Z,102250.19
2023-03-29T18:43:35.477Z,102245.88
2023-03-29T18:46:02.246Z,102250.50
2023-03-29T18:48:29.878Z,102254.88
2023-03-29T18:50:57.257Z,102268.19
2023-03-29T18:53:24.148Z,102262.13
2023-03-29T18:55:50.744Z,102271.06
2023-03-29T18:58:20.417Z,102269.22
2023-03-29T19:00:48.169Z,102270.09
2023-03-29T19:03:14.840Z,102270.09
2023-03-29T19:05:43.856Z,102276.53
2023-03-29T19:08:10.489Z,102279.34
2023-03-29T19:10:38.606Z,102284.59
2023-03-29T19:13:05.550Z,102285.78
2023-03-29T19:15:33.971Z,102287.72
2023-03-29T19:18:01.010Z,102285.44
2023-03-29T19:20:27.777Z,102292.72
2023-03-29T19:22:54.398Z,102296.19
2023-03-29T19:25:21.059Z,102293.69
2023-03-29T19:27:48.044Z,102286.69
2023-03-29T19:30:14.978Z,102294.94
2023-03-29T19:32:41.615Z,102311.06
2023-03-29T19:35:09.651Z,102301.38
2023-03-29T19:37:36.563Z,102301.50
2023-03-29T19:40:06.562Z,102298.03
2023-03-29T19:42:40.306Z,102305.44
2023-03-29T19:45:08.312Z,102308.97
2023-03-29T19:47:35.788Z,102304.38
2023-03-29T19:50:04.702Z,102304.06
2023-03-29T19:52:33.814Z,102295.59
2023-03-29T19:55:00.544Z,102289.28
2023-03-29T19:57:28.293Z,102300.13
2023-03-29T19:59:54.900Z,102302.72
2023-03-29T20:02:21.466Z,102289.16
2023-03-29T20:04:48.022Z,102294.13
2023-03-29T20:07:14.518Z,102284.13
2023-03-29T20:09:44.641Z,102293.88
2023-03-29T20:12:11.874Z,102296.22
2023-03-29T20:14:40.257Z,102295.81
2023-03-29T20:17:07.420Z,102297.34
2023-03-29T20:19:36.629Z,102287.28
2023-03-29T20:22:04.022Z,102292.34
2023-03-29T20:24:32.649Z,102285.81
2023-03-29T20:26:59.403Z,102282.75
2023-03-29T20:29:25.939Z,102290.50
2023-03-29T20:31:53.159Z,102290.41
2023-03-29T20:34:20.229Z,102292.13
2023-03-29T20:36:47.033Z,102300.97
2023-03-29T20:39:17.871Z,102294.59
2023-03-29T20:41:47.639Z,102289.03
2023-03-29T20:44:16.728Z,102294.19
2023-03-29T20:46:54.603Z,102294.88
2023-03-29T20:49:26.531Z,102290.47
2023-03-29T20:51:59.175Z,102287.97
2023-03-29T20:54:26.205Z,102287.50
2023-03-29T20:56:54.778Z,102281.34
2023-03-29T20:59:22.789Z,102281.34
2023-03-29T21:01:50.324Z,102281.28
2023-03-29T21:04:17.001Z,102289.53
2023-03-29T21:06:45.654Z,102295.22
2023-03-29T21:09:13.678Z,102295.53
2023-03-29T21:11:40.897Z,102290.28
2023-03-29T21:14:07.429Z,102292.19
2023-03-29T21:16:33.986Z,102282.69
2023-03-29T21:19:00.766Z,102283.06
2023-03-29T21:21:27.357Z,102285.38
2023-03-29T21:23:53.877Z,102287.47
2023-03-29T21:26:20.446Z,102296.31
2023-03-29T21:28:48.658Z,102291.50
2023-03-29T21:31:15.320Z,102297.69
2023-03-29T21:33:41.833Z,102303.56
2023-03-29T21:36:08.659Z,102299.44
2023-03-29T21:38:35.527Z,102295.63
2023-03-29T21:41:03.209Z,102291.09
2023-03-29T21:43:30.021Z,102287.50
2023-03-29T21:45:57.622Z,102289.06
2023-03-29T21:48:24.184Z,102293.69
2023-03-29T21:50:51.001Z,102292.22
2023-03-29T21:53:18.415Z,102287.44
2023-03-29T21:55:44.988Z,102293.75
2023-03-29T21:58:11.493Z,102292.81
2023-03-29T22:00:38.061Z,102289.06
2023-03-29T22:03:04.673Z,102294.44
2023-03-29T22:05:31.260Z,102287.34
2023-03-29T22:07:58.710Z,102284.75
2023-03-29T22:10:25.592Z,102290.41
2023-03-29T22:12:52.611Z,102293.66
2023-03-29T22:15:22.813Z,102291.38
2023-03-29T22:17:50.482Z,102281.59
2023-03-29T22:20:18.498Z,102282.22
2023-03-29T22:22:49.534Z,102287.84
2023-03-29T22:25:17.676Z,102295.69
2023-03-29T22:27:45.920Z,102284.63
2023-03-29T22:30:14.104Z,102283.28
2023-03-29T22:32:42.443Z,102285.25
2023-03-29T22:35:12.457Z,102277.69
2023-03-29T22:37:42.965Z,102284.19
2023-03-29T22:40:12.064Z,102279.47
2023-03-29T22:42:38.729Z,102280.09
2023-03-29T22:45:06.560Z,102280.00
2023-03-29T22:47:33.436Z,102273.88
2023-03-29T22:49:59.954Z,102273.75
2023-03-29T22:52:26.640Z,102281.13
2023-03-29T22:54:53.214Z,102292.38
2023-03-29T22:57:19.846Z,102280.72
2023-03-29T22:59:46.818Z,102281.94
2023-03-29T23:02:13.336Z,102277.19
2023-03-29T23:04:40.032Z,102275.88
2023-03-29T23:07:06.683Z,102277.97
2023-03-29T23:09:33.410Z,102279.59
2023-03-29T23:12:01.120Z,102283.56
2023-03-29T23:14:27.895Z,102272.47
2023-03-29T23:16:54.495Z,102276.16
2023-03-29T23:19:21.066Z,102280.81
2023-03-29T23:21:47.544Z,102277.59
2023-03-29T23:24:18.841Z,102278.09
2023-03-29T23:26:45.896Z,102270.78
2023-03-29T23:29:15.375Z,102271.56
2023-03-29T23:31:41.992Z,102273.41
2023-03-29T23:34:09.320Z,102270.59
2023-03-29T23:36:35.915Z,102272.44
2023-03-29T23:39:02.446Z,102264.44
2023-03-29T23:41:30.482Z,102265.44
2023-03-29T23:43:57.747Z,102264.44
2023-03-29T23:46:24.675Z,102264.44
2023-03-29T23:48:51.445Z,102262.91
2023-03-29T23:51:18.895Z,102254.28
2023-03-29T23:53:46.567Z,102255.34
2023-03-29T23:56:13.218Z,102248.22
2023-03-29T23:58:39.781Z,102251.88
